Time;durP1;ratioP1;P1;durP2;ratioP2;P2;SDS_P1;SDS_P2;PMS_P1;PMS_P2;Temp;Humidity;BMP_temperature;BMP_pressure;BME280_temperature;BME280_humidity;BME280_pressure;Samples;Min_cycle;Max_cycle;Signal;HPM_P1;HPM_P2
2021/03/27 00:00:26;;;;;;;107.43;54.03;;;;;;;7.13;69.23;100437.92;115244;1197;23077;-60
2021/03/27 00:03:21;;;;;;;101.80;53.00;;;;;;;7.15;69.19;100436.25;115236;1200;25935;-59
2021/03/27 00:05:59;;;;;;;102.97;52.50;;;;;;;7.17;69.16;100435.80;115277;1200;25817;-60
2021/03/27 00:08:41;;;;;;;112.47;58.23;;;;;;;7.19;69.46;100431.34;115479;1200;23132;-60
2021/03/27 00:11:14;;;;;;;120.73;63.50;;;;;;;7.20;69.58;100432.13;115179;1200;23558;-58
2021/03/27 00:13:52;;;;;;;106.30;58.10;;;;;;;7.20;69.33;100423.80;115325;1199;23180;-58
2021/03/27 00:16:26;;;;;;;112.10;57.00;;;;;;;7.21;69.34;100428.89;115169;1199;23145;-59
2021/03/27 00:19:04;;;;;;;107.90;56.93;;;;;;;7.23;69.34;100417.33;115325;1199;23111;-60
2021/03/27 00:21:42;;;;;;;110.87;56.90;;;;;;;7.22;69.45;100418.56;115256;1199;23173;-59
2021/03/27 00:24:16;;;;;;;106.27;56.97;;;;;;;7.25;69.65;100420.42;115434;1198;23114;-59
2021/03/27 00:26:51;;;;;;;121.05;58.90;;;;;;;7.23;69.67;100423.66;115249;1199;23115;-60
2021/03/27 00:29:24;;;;;;;125.03;63.37;;;;;;;7.26;69.72;100416.44;115057;1200;23113;-60
2021/03/27 00:31:58;;;;;;;123.23;65.03;;;;;;;7.26;69.86;100419.96;115363;1202;23253;-61
2021/03/27 00:34:32;;;;;;;122.57;61.83;;;;;;;7.27;70.15;100417.97;115415;1202;23118;-59
2021/03/27 00:37:04;;;;;;;118.90;63.30;;;;;;;7.26;70.21;100411.63;115381;1200;23177;-60
2021/03/27 00:39:42;;;;;;;117.15;59.30;;;;;;;7.27;70.15;100409.64;115324;1200;24655;-59
2021/03/27 00:42:16;;;;;;;116.10;58.50;;;;;;;7.28;70.17;100405.65;115408;1199;23355;-59
2021/03/27 00:44:50;;;;;;;113.50;56.80;;;;;;;7.30;70.04;100403.20;115503;1198;23262;-59
2021/03/27 00:47:23;;;;;;;105.87;54.17;;;;;;;7.31;70.00;100410.28;115316;1200;27288;-59
2021/03/27 00:49:58;;;;;;;112.55;59.30;;;;;;;7.31;70.21;100399.17;115455;1199;23109;-60
2021/03/27 00:52:29;;;;;;;108.63;59.33;;;;;;;7.32;70.21;100400.73;115212;1199;23246;-60
2021/03/27 00:55:08;;;;;;;102.83;55.03;;;;;;;7.30;70.33;100387.28;115283;1200;28908;-59
2021/03/27 00:57:40;;;;;;;110.67;55.93;;;;;;;7.30;70.24;100392.08;115516;1199;23105;-61
2021/03/27 01:00:15;;;;;;;110.60;56.57;;;;;;;7.31;70.13;100388.06;115589;1202;24236;-59
2021/03/27 01:02:47;;;;;;;109.50;58.30;;;;;;;7.32;70.08;100389.63;115407;1200;23115;-59
2021/03/27 01:05:20;;;;;;;114.83;55.47;;;;;;;7.32;70.26;100390.38;115372;1200;24706;-60
2021/03/27 01:07:51;;;;;;;108.50;55.83;;;;;;;7.31;70.20;100382.52;115318;1199;23115;-60
2021/03/27 01:10:24;;;;;;;103.17;52.63;;;;;;;7.31;70.18;100377.73;115082;1200;23149;-58
2021/03/27 01:12:55;;;;;;;97.40;53.10;;;;;;;7.32;70.20;100372.97;115053;1200;24893;-60
2021/03/27 01:15:29;;;;;;;93.27;49.00;;;;;;;7.31;70.30;100377.73;115219;1202;25735;-62
2021/03/27 01:18:02;;;;;;;90.00;45.50;;;;;;;7.31;70.44;100374.96;115404;1200;23111;-61
2021/03/27 01:20:35;;;;;;;83.50;45.00;;;;;;;7.30;70.33;100375.42;115228;1200;23727;-59
2021/03/27 01:23:05;;;;;;;91.10;46.20;;;;;;;7.29;70.35;100371.86;115329;1198;23253;-60
2021/03/27 01:25:37;;;;;;;85.68;45.70;;;;;;;7.27;70.29;100365.99;115315;1200;23250;-60
2021/03/27 01:28:12;;;;;;;92.20;45.00;;;;;;;7.26;70.38;100363.67;115613;1200;23183;-61
2021/03/27 01:30:58;;;;;;;88.57;43.07;;;;;;;7.25;70.26;100357.34;115369;1200;23081;-60
2021/03/27 01:33:32;;;;;;;81.53;42.13;;;;;;;7.23;70.30;100350.69;115191;1200;23288;-59
2021/03/27 01:36:13;;;;;;;83.47;41.50;;;;;;;7.20;70.20;100357.16;115134;1200;23134;-60
2021/03/27 01:38:47;;;;;;;79.70;39.70;;;;;;;7.17;70.30;100353.28;115405;1202;23218;-58
2021/03/27 01:41:31;;;;;;;85.05;41.05;;;;;;;7.16;70.24;100354.49;115321;1199;27406;-59
2021/03/27 01:44:11;;;;;;;76.20;38.60;;;;;;;7.14;70.24;100356.17;115316;1202;23371;-60
2021/03/27 01:47:02;;;;;;;78.00;38.70;;;;;;;7.13;70.28;100360.97;115283;1199;23180;-58
2021/03/27 01:49:48;;;;;;;78.70;37.45;;;;;;;7.10;70.25;100345.20;115373;1201;23254;-59
2021/03/27 01:52:44;;;;;;;73.80;38.60;;;;;;;7.07;70.31;100337.80;115310;1199;23397;-59
2021/03/27 01:55:27;;;;;;;82.90;37.85;;;;;;;7.05;70.29;100348.58;115252;1202;23535;-61
2021/03/27 01:58:02;;;;;;;77.35;38.50;;;;;;;7.04;70.31;100341.47;115205;1202;23190;-61
2021/03/27 02:00:36;;;;;;;74.85;37.30;;;;;;;7.03;70.22;100339.93;115375;1202;23108;-61
2021/03/27 09:02:14;;;;;;;32.70;14.87;;;;;;;12.70;63.54;100222.69;114867;1202;27734;-63
2021/03/27 09:04:59;;;;;;;35.30;12.40;;;;;;;12.80;62.03;100232.46;115158;1202;23123;-63
2021/03/27 09:07:44;;;;;;;30.80;12.25;;;;;;;12.91;62.05;100234.60;114744;1202;23119;-63
2021/03/27 09:10:38;;;;;;;29.80;11.00;;;;;;;12.97;61.69;100233.37;115277;1202;23252;-64
2021/03/27 09:13:42;;;;;;;29.07;9.63;;;;;;;13.03;61.65;100241.06;115014;1202;27948;-63
2021/03/27 09:16:40;;;;;;;29.47;10.17;;;;;;;13.06;60.60;100238.06;115152;1202;23102;-64
2021/03/27 09:19:37;;;;;;;26.00;10.15;;;;;;;13.11;59.70;100233.78;114839;1203;23204;-62
2021/03/27 09:22:33;;;;;;;29.65;9.35;;;;;;;13.17;59.56;100234.59;114994;1200;24746;-65
2021/03/27 09:25:13;;;;;;;27.50;9.67;;;;;;;13.24;60.17;100242.56;114852;1202;23133;-63
2021/03/27 09:28:10;;;;;;;28.00;10.78;;;;;;;13.32;60.08;100232.42;114641;1203;23114;-64
2021/03/27 09:30:50;;;;;;;30.20;10.85;;;;;;;13.46;60.11;100234.31;114858;1200;24801;-64
2021/03/27 09:33:27;;;;;;;29.23;10.57;;;;;;;13.63;58.68;100230.37;114659;1203;23112;-62
2021/03/27 09:36:07;;;;;;;27.80;10.30;;;;;;;13.90;58.77;100231.80;114720;1201;23121;-63
2021/03/27 09:38:45;;;;;;;26.07;10.37;;;;;;;14.09;57.67;100232.89;114774;1202;23250;-64
2021/03/27 09:41:52;;;;;;;26.45;9.10;;;;;;;14.24;57.39;100244.70;114757;1199;23125;-64
2021/03/27 09:45:01;;;;;;;27.50;9.80;;;;;;;14.35;56.96;100244.79;114742;1202;23119;-65
2021/03/27 09:48:10;;;;;;;22.93;9.38;;;;;;;14.45;56.47;100246.09;114753;1200;27245;-63
2021/03/27 09:50:49;;;;;;;24.15;8.70;;;;;;;14.52;56.38;100253.27;114533;1203;23206;-63
2021/03/27 09:53:57;;;;;;;26.03;8.03;;;;;;;14.57;55.22;100256.09;114498;1206;27258;-63
2021/03/27 09:56:33;;;;;;;25.40;9.30;;;;;;;14.65;54.48;100256.36;114646;1206;23617;-63
2021/03/27 09:59:33;;;;;;;25.67;9.70;;;;;;;14.71;55.15;100257.14;114545;1202;23516;-61
2021/03/27 10:02:06;;;;;;;;;;;;;;;14.77;54.93;100259.98;114503;1211;27252;-60
2021/03/27 10:04:54;;;;;;;23.00;9.35;;;;;;;14.80;54.99;100265.34;114865;1206;23314;-60
2021/03/27 10:07:34;;;;;;;30.65;11.95;;;;;;;14.84;54.39;100268.67;114462;1206;23119;-58
2021/03/27 10:10:17;;;;;;;;;;;;;;;14.90;54.81;100277.88;114555;1210;23128;-62
2021/03/27 10:12:58;;;;;;;25.50;9.70;;;;;;;15.01;54.18;100285.58;114631;1203;25851;-60
2021/03/27 10:15:35;;;;;;;22.55;8.70;;;;;;;15.15;53.31;100290.19;114610;1208;23124;-59
2021/03/27 10:18:11;;;;;;;21.80;6.00;;;;;;;15.26;50.19;100293.80;114694;1202;23121;-57
2021/03/27 10:20:48;;;;;;;17.50;6.50;;;;;;;15.33;50.34;100298.91;114612;1206;23119;-60
2021/03/27 10:23:38;;;;;;;19.00;6.50;;;;;;;15.36;50.54;100299.93;114557;1205;24780;-58
2021/03/27 10:26:34;;;;;;;19.85;6.60;;;;;;;15.38;50.30;100305.81;114610;1206;23223;-57
2021/03/27 10:32:03;;;;;;;21.40;6.50;;;;;;;15.36;49.86;100309.14;114739;1203;24920;-57
2021/03/27 10:34:39;;;;;;;23.75;7.70;;;;;;;15.31;49.63;100315.52;114757;1200;26182;-57
2021/03/27 10:37:18;;;;;;;19.50;5.40;;;;;;;15.24;49.63;100318.86;114760;1200;23119;-61
2021/03/27 10:40:31;;;;;;;17.10;6.10;;;;;;;15.16;49.61;100328.30;114677;1200;23151;-57
2021/03/27 10:43:22;;;;;;;17.10;6.30;;;;;;;15.04;49.19;100332.37;114703;1202;23121;-58
2021/03/27 10:46:04;;;;;;;24.90;8.80;;;;;;;14.93;50.09;100333.10;114893;1202;23122;-57
2021/03/27 10:49:24;;;;;;;20.05;6.60;;;;;;;14.83;49.35;100354.28;114991;1202;23143;-58
2021/03/27 10:52:37;;;;;;;17.78;4.70;;;;;;;14.66;50.20;100347.05;115249;1202;23106;-56
2021/03/27 10:55:42;;;;;;;14.63;4.60;;;;;;;14.50;50.32;100365.38;115037;1202;23114;-59
2021/03/27 10:58:46;;;;;;;17.90;5.60;;;;;;;14.32;50.15;100366.55;114923;1202;23265;-59
2021/03/27 11:04:42;;;;;;;26.00;9.90;;;;;;;14.04;51.59;100378.84;115223;1191;23095;-59
2021/03/27 11:07:36;;;;;;;16.90;5.50;;;;;;;13.86;52.40;100393.25;115139;1201;23074;-60
2021/03/27 11:10:50;;;;;;;16.80;5.50;;;;;;;13.68;52.60;100397.17;115223;1202;23115;-60
2021/03/27 11:13:48;;;;;;;14.50;4.90;;;;;;;13.49;52.85;100407.21;115192;1201;26268;-60
2021/03/27 11:16:31;;;;;;;17.45;5.40;;;;;;;13.35;53.16;100419.28;115188;1202;23163;-62
2021/03/27 11:19:36;;;;;;;16.90;4.45;;;;;;;13.23;53.20;100428.84;115235;1200;27886;-60
2021/03/27 11:22:27;;;;;;;14.97;4.40;;;;;;;13.12;54.02;100435.08;115189;1201;27885;-61
2021/03/27 11:25:22;;;;;;;11.45;2.40;;;;;;;13.06;53.89;100448.27;115225;1200;23078;-61
2021/03/27 11:28:07;;;;;;;6.60;1.20;;;;;;;12.89;54.73;100469.70;115175;1200;26163;-63
2021/03/27 11:30:46;;;;;;;4.50;1.25;;;;;;;12.62;56.62;100472.88;115246;1196;24771;-62
2021/03/27 11:33:32;;;;;;;5.80;1.10;;;;;;;12.30;57.32;100480.28;115228;1197;26807;-63
2021/03/27 11:36:09;;;;;;;4.83;1.20;;;;;;;12.05;58.35;100476.06;115157;1200;23106;-63
2021/03/27 11:38:44;;;;;;;5.70;1.40;;;;;;;11.92;58.87;100478.38;115176;1200;23117;-61
2021/03/27 11:41:23;;;;;;;6.23;1.40;;;;;;;11.86;59.48;100474.72;115152;1200;23095;-62
2021/03/27 11:44:17;;;;;;;4.55;1.30;;;;;;;11.85;60.25;100478.00;115158;1200;27269;-62
2021/03/27 11:46:54;;;;;;;7.63;1.60;;;;;;;11.86;60.58;100483.11;115468;1200;23112;-61
2021/03/27 11:49:44;;;;;;;6.63;1.70;;;;;;;11.91;60.51;100481.66;115398;1200;23195;-62
2021/03/27 11:52:24;;;;;;;5.80;1.78;;;;;;;11.97;60.26;100479.73;115136;1200;23098;-62
2021/03/27 11:55:04;;;;;;;9.43;1.95;;;;;;;12.04;60.33;100482.91;115395;1200;23113;-63
2021/03/27 11:57:48;;;;;;;9.50;1.90;;;;;;;12.10;60.43;100480.22;115149;1197;23105;-61
2021/03/27 12:04:02;;;;;;;12.07;2.10;;;;;;;12.21;60.13;100488.03;115437;1196;26032;-64
2021/03/27 12:06:37;;;;;;;19.07;5.77;;;;;;;12.23;59.80;100480.67;115570;1196;23236;-62
2021/03/27 12:09:17;;;;;;;25.47;7.60;;;;;;;12.25;60.07;100494.95;115428;1200;23134;-64
2021/03/27 12:12:08;;;;;;;17.95;5.20;;;;;;;12.27;59.89;100494.48;115436;1196;26159;-63
2021/03/27 12:14:49;;;;;;;14.55;3.55;;;;;;;12.28;59.91;100499.59;115520;1201;23178;-63
2021/03/27 12:17:41;;;;;;;13.10;3.10;;;;;;;12.32;59.89;100496.59;115429;1196;27291;-64
2021/03/27 12:20:35;;;;;;;9.47;2.90;;;;;;;12.35;59.39;100510.41;115599;1197;23163;-64
2021/03/27 12:23:18;;;;;;;35.75;10.20;;;;;;;12.36;59.57;100517.53;115319;1196;23093;-65
2021/03/27 12:25:59;;;;;;;18.13;4.50;;;;;;;12.34;58.65;100514.45;116267;1197;23102;-64
2021/03/27 12:28:37;;;;;;;27.40;7.20;;;;;;;12.31;59.34;100515.41;115625;1200;23080;-64
2021/03/27 12:31:19;;;;;;;102.77;28.87;;;;;;;12.28;60.98;100521.20;115509;1202;23089;-63
2021/03/27 12:34:12;;;;;;;24.95;7.15;;;;;;;12.12;59.72;100520.44;115326;1197;23234;-63
2021/03/27 12:36:55;;;;;;;23.60;4.87;;;;;;;12.06;59.43;100525.16;115492;1202;23118;-62
2021/03/27 12:39:41;;;;;;;55.20;16.67;;;;;;;11.99;59.46;100519.20;115158;1202;25756;-65
2021/03/27 12:42:17;;;;;;;50.30;17.10;;;;;;;11.91;59.46;100532.02;115356;1196;24144;-62
2021/03/27 12:44:55;;;;;;;9.27;2.40;;;;;;;11.86;59.25;100547.45;115719;1201;23122;-62
2021/03/27 12:47:45;;;;;;;7.15;1.30;;;;;;;11.79;59.02;100644.97;115300;1201;23105;-62
2021/03/27 12:50:36;;;;;;;2.53;0.80;;;;;;;11.17;59.59;100647.66;115065;1203;23098;-63
2021/03/27 12:53:33;;;;;;;2.57;0.60;;;;;;;10.51;60.98;100644.78;115134;1197;23837;-62
2021/03/27 12:56:17;;;;;;;2.03;0.60;;;;;;;9.97;61.57;100660.79;115109;1196;23102;-62
2021/03/27 12:58:57;;;;;;;3.47;0.80;;;;;;;9.60;62.32;100662.78;115330;1201;23092;-62
2021/03/27 13:01:48;;;;;;;2.73;0.60;;;;;;;9.33;63.56;100671.08;115310;1202;23106;-61
2021/03/27 13:04:50;;;;;;;3.25;0.75;;;;;;;9.12;63.82;100672.71;114789;1200;23180;-62
2021/03/27 13:07:28;;;;;;;5.10;0.65;;;;;;;8.98;64.16;100678.06;114630;1205;23142;-62
2021/03/27 13:10:09;;;;;;;2.07;0.60;;;;;;;8.88;64.31;100668.88;114736;1203;27209;-61
2021/03/27 13:12:53;;;;;;;2.05;0.55;;;;;;;8.80;64.46;100664.82;114531;1203;23420;-60
2021/03/27 13:15:48;;;;;;;3.05;0.65;;;;;;;8.72;64.24;100675.47;114891;1203;23105;-61
2021/03/27 13:18:28;;;;;;;5.23;0.77;;;;;;;8.68;65.02;100676.83;114955;1205;23107;-61
2021/03/27 13:21:13;;;;;;;2.43;0.60;;;;;;;8.64;65.29;100695.67;115028;1203;23588;-60
2021/03/27 13:23:48;;;;;;;4.70;1.00;;;;;;;8.59;65.91;100702.59;114947;1206;26200;-60
2021/03/27 13:26:23;;;;;;;5.23;0.90;;;;;;;8.54;66.45;100714.33;114839;1203;23250;-62
2021/03/27 13:32:18;;;;;;;4.10;0.90;;;;;;;8.38;67.40;100728.41;115101;1199;26003;-61
2021/03/27 13:34:55;;;;;;;6.95;1.20;;;;;;;8.33;67.72;100728.22;114852;1200;28224;-61
2021/03/27 13:37:31;;;;;;;5.15;1.10;;;;;;;8.28;67.85;100718.45;118350;1203;22869;-61
2021/03/27 13:40:06;;;;;;;5.30;1.47;;;;;;;8.28;68.78;100723.22;118348;1200;23012;-62
2021/03/27 13:42:55;;;;;;;5.25;1.30;;;;;;;8.29;69.32;100728.36;116397;1197;24724;-62
2021/03/27 13:45:31;;;;;;;6.17;1.30;;;;;;;8.25;69.40;100715.77;118645;1200;22854;-63
2021/03/27 13:48:17;;;;;;;4.07;1.20;;;;;;;8.24;69.57;100725.33;118637;1196;22886;-64
2021/03/27 13:51:17;;;;;;;4.97;1.20;;;;;;;8.22;69.56;100725.00;118106;1196;23160;-62
2021/03/27 13:53:56;;;;;;;6.80;1.37;;;;;;;8.23;70.06;100721.79;115541;1202;23093;-65
2021/03/27 13:56:39;;;;;;;5.95;1.45;;;;;;;8.23;70.15;100713.45;115168;1197;23131;-62
2021/03/27 13:59:32;;;;;;;4.95;1.40;;;;;;;8.22;70.39;100708.31;115164;1197;23093;-63
2021/03/27 14:02:38;;;;;;;3.30;1.10;;;;;;;8.21;70.21;100715.12;114917;1196;24558;-63
2021/03/27 14:05:17;;;;;;;5.90;1.50;;;;;;;8.18;70.27;100717.58;114966;1201;23106;-62
2021/03/27 14:08:16;;;;;;;6.03;1.47;;;;;;;8.17;70.39;100720.81;115357;1202;23102;-64
2021/03/27 14:10:53;;;;;;;10.37;2.70;;;;;;;8.19;70.45;100707.98;116793;1197;23193;-63
2021/03/27 14:13:29;;;;;;;9.10;2.37;;;;;;;8.20;70.65;100711.55;115489;1196;26025;-64
2021/03/27 14:16:25;;;;;;;6.60;1.47;;;;;;;8.19;70.75;100719.11;115377;1196;23293;-65
2021/03/27 14:19:10;;;;;;;6.20;1.50;;;;;;;8.21;70.79;100727.03;115186;1197;23119;-64
2021/03/27 14:21:56;;;;;;;6.15;1.40;;;;;;;8.22;70.39;100736.13;117083;1202;24762;-65
2021/03/27 14:24:57;;;;;;;5.37;1.10;;;;;;;8.26;70.88;100734.03;115183;1197;23143;-64
2021/03/27 14:27:47;;;;;;;2.93;1.00;;;;;;;8.32;70.82;100743.38;115237;1196;23108;-64
2021/03/27 14:30:40;;;;;;;7.68;1.10;;;;;;;8.37;70.81;100737.22;115188;1196;23248;-63
2021/03/27 14:33:27;;;;;;;3.93;1.20;;;;;;;8.44;70.59;100740.51;115281;1196;25996;-64
2021/03/27 14:36:08;;;;;;;4.90;1.25;;;;;;;8.56;70.85;100734.13;115231;1196;23143;-65
2021/03/27 14:39:12;;;;;;;5.10;1.20;;;;;;;8.67;70.23;100731.70;115469;1202;23379;-64
2021/03/27 14:41:57;;;;;;;5.83;1.30;;;;;;;8.77;69.93;100727.75;114744;1199;23093;-64
2021/03/27 14:44:36;;;;;;;7.70;1.40;;;;;;;8.92;70.47;100731.55;114869;1200;23169;-64
2021/03/27 14:47:36;;;;;;;5.23;1.10;;;;;;;9.06;69.88;100744.17;114796;1203;23335;-64
2021/03/27 14:50:22;;;;;;;3.35;1.10;;;;;;;9.18;69.45;100743.30;114693;1203;23207;-64
2021/03/27 14:53:09;;;;;;;5.45;1.30;;;;;;;9.23;69.04;100751.05;115084;1203;23092;-63
2021/03/27 14:55:46;;;;;;;6.25;1.30;;;;;;;9.23;68.42;100739.90;114529;1200;24931;-63
2021/03/27 14:58:31;;;;;;;4.57;0.97;;;;;;;9.25;68.09;100748.58;115181;1200;23115;-63
2021/03/27 15:01:16;;;;;;;4.50;1.00;;;;;;;9.29;68.12;100740.85;114934;1203;23117;-66
2021/03/27 15:03:58;;;;;;;4.40;1.10;;;;;;;9.32;67.99;100741.95;114918;1199;23116;-62
2021/03/27 15:06:46;;;;;;;4.75;1.10;;;;;;;9.32;67.17;100739.17;114818;1203;27249;-62
2021/03/27 15:09:34;;;;;;;4.53;1.10;;;;;;;9.29;67.22;100738.06;114866;1203;23230;-63
2021/03/27 15:12:23;;;;;;;4.83;1.10;;;;;;;9.28;67.24;100744.89;114896;1200;23159;-62
2021/03/27 15:15:01;;;;;;;4.50;1.05;;;;;;;9.28;67.11;100746.89;115181;1200;23226;-62
2021/03/27 15:17:47;;;;;;;4.15;1.25;;;;;;;9.27;67.26;100743.32;114838;1203;23120;-63
2021/03/27 15:20:33;;;;;;;5.55;1.20;;;;;;;9.29;67.42;100749.20;115285;1196;24724;-64
2021/03/27 15:23:16;;;;;;;5.47;1.33;;;;;;;9.34;67.65;100739.48;115209;1202;24828;-61
2021/03/27 15:28:49;;;;;;;5.47;1.30;;;;;;;9.52;67.10;100750.69;115058;1197;27358;-57
2021/03/27 15:31:24;;;;;;;6.95;1.35;;;;;;;9.57;66.94;100744.52;115195;1197;23355;-57
2021/03/27 15:34:04;;;;;;;7.30;1.40;;;;;;;9.62;66.94;100746.72;115421;1196;23099;-58
2021/03/27 15:36:51;;;;;;;7.87;1.70;;;;;;;9.68;66.46;100742.84;115475;1196;23276;-57
2021/03/27 15:39:35;;;;;;;5.23;1.27;;;;;;;9.71;66.04;100743.94;115466;1196;23234;-58
2021/03/27 15:42:14;;;;;;;5.50;1.50;;;;;;;9.74;66.16;100743.03;115135;1196;25990;-58
2021/03/27 15:45:20;;;;;;;5.80;1.60;;;;;;;9.77;65.80;100753.24;115102;1197;23113;-57
2021/03/27 15:47:54;;;;;;;6.83;1.20;;;;;;;9.75;64.81;100750.92;115085;1202;24615;-60
2021/03/27 15:50:29;;;;;;;5.30;1.10;;;;;;;9.74;64.84;100756.97;115098;1202;24561;-60
2021/03/27 15:53:07;;;;;;;4.53;1.17;;;;;;;9.72;64.48;100748.29;115047;1202;27236;-59
2021/03/27 15:55:45;;;;;;;6.50;1.30;;;;;;;9.70;64.62;100756.34;115027;1201;23160;-60
2021/03/27 15:58:30;;;;;;;5.83;1.60;;;;;;;9.69;64.84;100744.41;115242;1196;23119;-60
2021/03/27 16:01:06;;;;;;;5.00;1.35;;;;;;;9.67;64.63;100748.88;115322;1196;23074;-60
2021/03/27 16:04:09;;;;;;;7.63;1.43;;;;;;;9.65;64.53;100754.14;115365;1202;23093;-62
2021/03/27 16:06:43;;;;;;;7.40;1.73;;;;;;;9.64;63.91;100758.19;115235;1200;23101;-60
2021/03/27 16:09:29;;;;;;;6.17;1.30;;;;;;;9.61;63.93;100768.23;116551;1200;27230;-61
2021/03/27 16:12:14;;;;;;;5.17;1.20;;;;;;;9.58;64.13;100757.23;115337;1200;23243;-59
2021/03/27 16:15:14;;;;;;;7.90;1.70;;;;;;;9.54;63.57;100765.72;115318;1200;23688;-61
2021/03/27 16:17:50;;;;;;;;;;;;;;;9.50;63.57;100769.88;115355;1206;23091;-61
2021/03/27 16:20:47;;;;;;;4.75;1.40;;;;;;;9.43;63.47;100765.39;115464;1199;25541;-59
2021/03/27 16:23:35;;;;;;;5.35;1.30;;;;;;;9.39;63.47;100778.69;115350;1200;23105;-61
2021/03/27 16:26:38;;;;;;;4.23;1.07;;;;;;;9.34;63.62;100772.92;115589;1200;27099;-61
2021/03/27 16:29:29;;;;;;;4.50;1.20;;;;;;;9.29;63.74;100781.89;115479;1202;23123;-62
2021/03/27 16:32:14;;;;;;;5.18;1.08;;;;;;;9.23;63.89;100792.83;115734;1203;23128;-61
2021/03/27 16:35:13;;;;;;;5.70;1.70;;;;;;;9.19;63.96;100788.63;115534;1202;23184;-62
2021/03/27 16:37:53;;;;;;;6.20;1.40;;;;;;;9.12;64.14;100789.70;115301;1202;23116;-62
2021/03/27 16:40:35;;;;;;;7.70;1.90;;;;;;;9.10;64.20;100788.59;115314;1201;25115;-61
2021/03/27 16:43:10;;;;;;;8.43;1.80;;;;;;;9.06;64.25;100785.95;115450;1199;23137;-61
2021/03/27 16:46:08;;;;;;;8.70;2.10;;;;;;;9.03;64.19;100784.06;115381;1200;24897;-61
2021/03/27 16:49:00;;;;;;;9.57;2.20;;;;;;;9.00;64.40;100784.20;115508;1199;23108;-62
2021/03/27 16:51:42;;;;;;;9.30;1.93;;;;;;;8.96;64.27;100789.89;115609;1199;23333;-62
2021/03/27 16:54:44;;;;;;;11.10;2.70;;;;;;;8.92;64.32;100794.81;115325;1200;23131;-61
2021/03/27 16:57:44;;;;;;;9.75;2.20;;;;;;;8.85;64.27;100797.88;115333;1199;26321;-57
2021/03/27 17:00:22;;;;;;;10.87;2.77;;;;;;;8.80;64.06;100799.23;115456;1203;26222;-56
2021/03/27 17:03:01;;;;;;;13.65;3.20;;;;;;;8.77;64.13;100800.13;115183;1200;23106;-58
2021/03/27 17:05:37;;;;;;;15.80;3.30;;;;;;;8.76;64.23;100806.94;115289;1199;23101;-55
2021/03/27 17:08:10;;;;;;;13.77;4.23;;;;;;;8.74;64.31;100814.19;115431;1200;25958;-60
2021/03/27 17:10:47;;;;;;;17.05;4.75;;;;;;;8.70;64.57;100814.32;115493;1197;24427;-62
2021/03/27 17:13:34;;;;;;;7.07;1.50;;;;;;;8.66;62.20;100891.61;115527;1200;23273;-60
2021/03/27 17:16:28;;;;;;;6.90;0.80;;;;;;;8.56;61.76;100928.94;115437;1202;23274;-60
2021/03/27 17:19:25;;;;;;;2.33;0.53;;;;;;;8.31;61.29;100950.44;115515;1196;23108;-58
2021/03/27 17:22:43;;;;;;;3.50;0.40;;;;;;;8.03;62.34;100969.55;115445;1197;23244;-61
2021/03/27 17:25:28;;;;;;;5.43;0.63;;;;;;;7.83;63.22;100990.43;114990;1200;23106;-59
2021/03/27 17:28:34;;;;;;;6.75;0.70;;;;;;;7.68;64.77;101006.73;115161;1200;23121;-59
2021/03/27 17:31:16;;;;;;;2.93;0.40;;;;;;;7.45;66.65;101028.47;115386;1200;23113;-59
2021/03/27 17:34:16;;;;;;;5.33;0.60;;;;;;;7.17;67.29;101030.00;115065;1200;23172;-61
2021/03/27 17:37:14;;;;;;;5.70;0.58;;;;;;;6.86;67.61;101028.81;114529;1205;26246;-62
2021/03/27 17:39:49;;;;;;;4.67;0.50;;;;;;;6.61;68.08;101042.52;115353;1203;25204;-61
2021/03/27 17:42:39;;;;;;;3.47;0.40;;;;;;;6.42;67.91;101039.38;115210;1203;23146;-60
2021/03/27 17:45:13;;;;;;;;;;;;;;;6.26;68.31;101035.80;114909;1207;23148;-62
2021/03/27 17:47:51;;;;;;;4.00;0.70;;;;;;;6.15;68.12;101029.70;114853;1202;23243;-61
2021/03/27 17:50:40;;;;;;;4.05;0.60;;;;;;;6.04;68.00;101015.31;114926;1203;26250;-59
2021/03/27 17:53:17;;;;;;;6.55;0.90;;;;;;;5.99;68.71;101013.04;114770;1203;23273;-62
2021/03/27 17:55:54;;;;;;;3.95;0.70;;;;;;;5.93;68.50;101015.55;115042;1200;23124;-61
2021/03/27 17:58:40;;;;;;;6.25;0.55;;;;;;;5.91;68.52;101031.03;115469;1200;23261;-61
2021/03/27 18:20:29;;;;;;;3.33;0.70;;;;;;;5.90;69.02;101032.25;115260;1196;23092;-62
2021/03/27 18:23:01;;;;;;;8.67;1.30;;;;;;;5.89;68.90;101014.84;115483;1199;23208;-61
2021/03/27 18:25:32;;;;;;;7.43;1.47;;;;;;;5.91;68.96;101019.95;115495;1200;23305;-62
2021/03/27 18:28:18;;;;;;;9.50;1.30;;;;;;;5.93;68.65;101020.30;115417;1197;23089;-61
2021/03/27 18:31:00;;;;;;;5.20;1.20;;;;;;;5.94;68.38;101005.25;115406;1197;23084;-61
2021/03/27 18:33:42;;;;;;;6.20;1.10;;;;;;;5.95;68.67;101002.04;115531;1197;24740;-61
2021/03/27 18:36:16;;;;;;;4.65;0.70;;;;;;;5.97;68.64;101007.14;115647;1196;23276;-59
2021/03/27 18:39:07;;;;;;;4.27;0.70;;;;;;;5.98;68.83;101014.27;115421;1196;23093;-61
2021/03/27 18:41:43;;;;;;;4.07;0.83;;;;;;;5.95;68.50;101013.13;115616;1196;23090;-61
2021/03/27 18:44:16;;;;;;;3.63;0.70;;;;;;;5.91;68.42;101004.11;117047;1197;23304;-61
2021/03/27 18:46:58;;;;;;;5.77;1.00;;;;;;;5.88;68.66;101009.70;115355;1196;23095;-61
2021/03/27 18:49:30;;;;;;;5.80;1.00;;;;;;;5.83;68.62;101024.84;115356;1197;23160;-59
2021/03/27 18:52:08;;;;;;;5.75;1.05;;;;;;;5.79;68.73;101017.80;115572;1197;23068;-61
2021/03/27 18:54:47;;;;;;;6.23;0.97;;;;;;;5.74;68.75;101030.95;115373;1202;23071;-60
2021/03/27 18:57:26;;;;;;;8.47;1.20;;;;;;;5.70;68.70;101027.47;115332;1196;27755;-60
2021/03/27 19:00:06;;;;;;;5.35;1.00;;;;;;;5.66;68.71;101020.44;115533;1197;23105;-60
2021/03/27 19:02:38;;;;;;;6.37;1.27;;;;;;;5.62;68.55;101037.14;115292;1197;26258;-58
2021/03/27 19:05:22;;;;;;;6.00;0.90;;;;;;;5.56;68.71;101038.84;115654;1196;23099;-60
2021/03/27 19:08:03;;;;;;;6.00;0.97;;;;;;;5.51;68.57;101052.38;115529;1196;23090;-61
2021/03/27 19:10:36;;;;;;;6.53;0.93;;;;;;;5.47;68.52;101046.13;115584;1196;23183;-58
2021/03/27 19:13:17;;;;;;;5.30;0.90;;;;;;;5.44;68.62;101052.53;115329;1196;27340;-61
2021/03/27 19:15:51;;;;;;;7.97;1.10;;;;;;;5.40;68.59;101052.58;115163;1201;23093;-59
2021/03/27 19:18:26;;;;;;;6.03;1.10;;;;;;;5.38;68.86;101057.77;115114;1202;23099;-59
2021/03/27 19:21:09;;;;;;;6.60;1.10;;;;;;;5.37;68.85;101052.66;115066;1201;23091;-58
2021/03/27 19:23:45;;;;;;;6.17;1.10;;;;;;;5.33;68.84;101060.25;115118;1202;23545;-58
2021/03/27 19:26:20;;;;;;;6.20;1.20;;;;;;;5.29;68.97;101051.23;115073;1201;23234;-58
2021/03/27 19:28:57;;;;;;;13.17;1.53;;;;;;;5.25;68.90;101056.84;114973;1201;23163;-57
2021/03/27 19:31:30;;;;;;;8.67;1.60;;;;;;;5.19;69.05;101053.00;115237;1202;23098;-58
2021/03/27 19:34:32;;;;;;;10.50;2.00;;;;;;;5.14;69.26;101066.52;115240;1196;25989;-58
2021/03/27 19:37:11;;;;;;;11.30;2.60;;;;;;;5.09;69.14;101075.33;115321;1200;23089;-58
2021/03/27 19:39:50;;;;;;;13.80;2.37;;;;;;;5.07;69.37;101066.66;115176;1201;23099;-58
2021/03/27 19:42:26;;;;;;;21.75;4.40;;;;;;;5.05;69.38;101069.83;115115;1202;23095;-58
2021/03/27 19:45:07;;;;;;;25.47;6.30;;;;;;;5.04;69.37;101071.05;115198;1197;26282;-57
2021/03/27 19:47:40;;;;;;;18.50;5.00;;;;;;;5.02;69.63;101080.96;115161;1196;26242;-57
2021/03/27 19:50:20;;;;;;;16.37;4.27;;;;;;;4.99;69.76;101081.82;115196;1202;23103;-58
2021/03/27 19:53:00;;;;;;;11.27;2.10;;;;;;;4.97;69.83;101084.98;115203;1202;25717;-56
2021/03/27 19:55:35;;;;;;;11.60;2.00;;;;;;;4.96;69.99;101085.42;115195;1203;23095;-58
2021/03/27 19:58:19;;;;;;;13.40;3.05;;;;;;;4.93;69.91;101090.59;115245;1202;23096;-58
2021/03/27 20:01:00;;;;;;;16.67;3.53;;;;;;;4.96;70.02;101082.65;115141;1202;23113;-58
2021/03/27 20:03:49;;;;;;;16.90;4.05;;;;;;;4.94;70.24;101097.67;115136;1202;23089;-58
2021/03/27 20:06:22;;;;;;;18.25;4.35;;;;;;;4.98;70.27;101103.17;115282;1202;24730;-56